KDEC/DEC METAR and TAF weather

Enter ICAO airport designator
Station Type Date Time Source
KDEC METAR 2019/11/22 00:54 UTC NOAA

KDEC 220054Z 30012G22KT 10SM OVC017 07/03 A3002 RMK AO2 PK WND 29026/0011 SLP168 T00720028


Station Type Date Time Source
KDEC Decoded METAR 2019/11/22 00:54 UTC NOAA

DECATUR AIRPORT, IL, United States (KDEC) 39-50N 88-52W 207M
Nov 21, 2019 - 07:54 PM EST / 2019.11.22 0054 UTC
Wind: from the WNW (300 degrees) at 14 MPH (12 KT) gusting to 25 MPH (22 KT):0
Visibility: 10 mile(s):0
Sky conditions: overcast
Temperature: 45.0 F (7.2 C)
Dew Point: 37.0 F (2.8 C)
Relative Humidity: 73%
Pressure (altimeter): 30.02 in. Hg (1016 hPa)
ob: KDEC 220054Z 30012G22KT 10SM OVC017 07/03 A3002 RMK AO2 PK WND 29026/0011 SLP168 T00720028
cycle: 1

Station Type Date Time Source
KDEC TAF 2019/11/21 21:27 UTC NOAA

TAF
AMD KDEC 212124Z 2121/2218 28020G31KT P6SM BKN023
FM220100 30012G21KT P6SM OVC015
FM220700 33010KT P6SM OVC015
FM220900 34009KT P6SM BKN020
FM221100 35009KT P6SM BKN035

Example: see airport list